Time;durP1;ratioP1;P1;durP2;ratioP2;P2;SDS_P1;SDS_P2;PMS_P1;PMS_P2;Temp;Humidity;BMP_temperature;BMP_pressure;BME280_temperature;BME280_humidity;BME280_pressure;Samples;Min_cycle;Max_cycle;Signal;HPM_P1;HPM_P2
2024/01/16 00:00:03;;;;;;;;;;;;;;;20.32;37.62;99497.41;2064281;28;2338;-65
2024/01/16 00:01:04;;;;;;;;;;;;;;;20.33;37.62;99490.28;2064482;28;7441;-65
2024/01/16 00:02:07;;;;;;;;;;;;;;;20.33;37.73;99484.53;2062037;28;1675;-64
2024/01/16 00:03:09;;;;;;;;;;;;;;;20.34;37.71;99475.22;2062450;28;2443;-64
2024/01/16 00:04:11;;;;;;;;;;;;;;;20.34;37.93;99478.09;2062255;28;2238;-64
2024/01/16 00:05:12;;;;;;;;;;;;;;;20.36;37.78;99478.13;2060769;28;2264;-65
2024/01/16 00:06:14;;;;;;;;;;;;;;;20.34;37.94;99472.34;2062452;28;1873;-65
2024/01/16 00:07:15;;;;;;;;;;;;;;;20.35;37.92;99470.94;2062930;28;1963;-64
2024/01/16 00:08:16;;;;;;;;;;;;;;;20.38;38.01;99463.09;2063622;28;1686;-64
2024/01/16 00:09:18;;;;;;;;;;;;;;;20.38;37.95;99463.81;2062187;28;2171;-65
2024/01/16 00:10:20;;;;;;;;;;;;;;;20.39;38.05;99464.56;2061952;28;2215;-65
2024/01/16 00:11:21;;;;;;;;;;;;;;;20.38;38.15;99466.69;2064789;28;1636;-65
2024/01/16 00:12:22;;;;;;;;;;;;;;;20.39;38.02;99471.03;2067281;28;1861;-65
2024/01/16 00:13:24;;;;;;;;;;;;;;;20.39;37.92;99471.03;2062300;28;2249;-64
2024/01/16 00:14:25;;;;;;;;;;;;;;;20.40;37.99;99472.47;2060920;28;1607;-64
2024/01/16 00:15:27;;;;;;;;;;;;;;;20.41;37.92;99476.09;2057056;28;2803;-69
2024/01/16 00:16:28;;;;;;;;;;;;;;;20.41;37.97;99478.97;2059109;28;2147;-66
2024/01/16 00:17:30;;;;;;;;;;;;;;;20.43;37.98;99481.88;2057350;28;2092;-66
2024/01/16 00:18:31;;;;;;;;;;;;;;;20.42;38.17;99471.81;2061302;28;1911;-65
2024/01/16 00:19:33;;;;;;;;;;;;;;;20.41;38.03;99473.97;2062078;28;2180;-64
2024/01/16 00:20:35;;;;;;;;;;;;;;;20.41;38.06;99478.97;2060304;28;2262;-64
2024/01/16 00:21:42;;;;;;;;;;;;;;;20.41;38.12;99485.47;2060793;28;2252;-64
2024/01/16 00:22:44;;;;;;;;;;;;;;;20.40;38.27;99483.97;2061270;28;2155;-65
2024/01/16 00:23:45;;;;;;;;;;;;;;;20.39;38.34;99481.81;2059358;28;2603;-65
2024/01/16 00:24:46;;;;;;;;;;;;;;;20.40;38.10;99483.25;2064801;28;1587;-64
2024/01/16 00:25:48;;;;;;;;;;;;;;;20.40;38.25;99477.50;2062728;28;1575;-64
2024/01/16 00:26:50;;;;;;;;;;;;;;;20.39;38.36;99473.19;2059691;28;1642;-64
2024/01/16 00:27:51;;;;;;;;;;;;;;;20.38;38.20;99481.06;2059518;28;2013;-65
2024/01/16 00:28:52;;;;;;;;;;;;;;;20.35;38.32;99470.94;2060691;28;1705;-64
2024/01/16 00:29:54;;;;;;;;;;;;;;;20.37;38.33;99473.13;2060847;28;2162;-65
2024/01/16 00:30:55;;;;;;;;;;;;;;;20.36;38.51;99475.25;2062659;28;6187;-65
2024/01/16 00:31:57;;;;;;;;;;;;;;;20.35;38.53;99476.69;2061828;28;1713;-64
2024/01/16 00:32:58;;;;;;;;;;;;;;;20.36;38.28;99492.50;2060756;28;1634;-64
2024/01/16 00:34:00;;;;;;;;;;;;;;;20.37;38.20;99499.72;2055640;28;2969;-67
2024/01/16 00:35:01;;;;;;;;;;;;;;;20.35;38.37;99484.56;2061522;28;1592;-67
2024/01/16 00:36:03;;;;;;;;;;;;;;;20.34;38.17;99489.59;2060417;28;2183;-66
2024/01/16 00:37:05;;;;;;;;;;;;;;;20.35;38.28;99487.44;2061078;28;2339;-67
2024/01/16 00:38:06;;;;;;;;;;;;;;;20.34;38.20;99486.72;2062881;28;2082;-65
2024/01/16 00:39:08;;;;;;;;;;;;;;;20.34;38.23;99491.72;2057412;28;2394;-65
2024/01/16 00:40:09;;;;;;;;;;;;;;;20.34;38.23;99497.47;2060759;28;2187;-64
2024/01/16 00:41:11;;;;;;;;;;;;;;;20.34;38.28;99486.72;2058848;28;1877;-65
2024/01/16 00:42:13;;;;;;;;;;;;;;;20.34;38.27;99486.72;2060777;28;1873;-65
2024/01/16 00:43:15;;;;;;;;;;;;;;;20.35;38.24;99498.94;2062902;28;1721;-65
2024/01/16 00:44:17;;;;;;;;;;;;;;;20.34;38.27;99498.22;2059050;28;2314;-64
2024/01/16 00:45:18;;;;;;;;;;;;;;;20.34;38.32;99492.47;2060802;28;2357;-64
2024/01/16 00:46:20;;;;;;;;;;;;;;;20.35;38.26;99502.56;2058295;28;1710;-65
2024/01/16 00:47:21;;;;;;;;;;;;;;;20.36;38.30;99495.38;2061096;28;1801;-65
2024/01/16 00:48:23;;;;;;;;;;;;;;;20.36;38.36;99495.38;2060012;28;1919;-64
2024/01/16 00:49:24;;;;;;;;;;;;;;;20.38;38.36;99498.31;2058204;28;2165;-65
2024/01/16 00:50:26;;;;;;;;;;;;;;;20.37;38.44;99499.72;2065357;28;2088;-64
2024/01/16 00:51:28;;;;;;;;;;;;;;;20.37;38.52;99491.09;2064194;28;1574;-65
2024/01/16 00:52:29;;;;;;;;;;;;;;;20.39;38.42;99504.81;2060081;28;2263;-65
2024/01/16 00:53:30;;;;;;;;;;;;;;;20.39;38.40;99508.41;2062422;28;1659;-64
2024/01/16 00:54:32;;;;;;;;;;;;;;;20.40;38.31;99515.59;2056158;28;2026;-64
2024/01/16 00:55:34;;;;;;;;;;;;;;;20.41;38.35;99522.84;2058803;28;3152;-69
2024/01/16 00:56:36;;;;;;;;;;;;;;;20.40;38.21;99518.47;2059619;28;1661;-67
2024/01/16 00:57:37;;;;;;;;;;;;;;;20.41;38.31;99517.09;2059721;28;3197;-67
2024/01/16 00:58:38;;;;;;;;;;;;;;;20.41;38.36;99528.59;2063245;28;2183;-66
2024/01/16 00:59:40;;;;;;;;;;;;;;;20.40;38.37;99532.84;2060329;28;2596;-65
2024/01/16 01:00:41;;;;;;;;;;;;;;;20.40;38.36;99520.63;2060057;28;6095;-64
2024/01/16 01:01:44;;;;;;;;;;;;;;;20.39;38.58;99534.28;2059800;28;1704;-64
2024/01/16 01:02:46;;;;;;;;;;;;;;;20.40;38.57;99535.72;2059693;28;2172;-65
2024/01/16 01:03:47;;;;;;;;;;;;;;;20.39;38.31;99528.53;2060530;28;1620;-65
2024/01/16 01:04:49;;;;;;;;;;;;;;;20.39;38.47;99533.56;2063545;28;1654;-65
2024/01/16 01:05:50;;;;;;;;;;;;;;;20.39;38.39;99530.69;2057073;28;2175;-64
2024/01/16 01:06:52;;;;;;;;;;;;;;;20.37;38.40;99534.22;2059865;28;2175;-65
2024/01/16 01:07:54;;;;;;;;;;;;;;;20.36;38.43;99541.38;2058704;28;2314;-65
2024/01/16 01:08:56;;;;;;;;;;;;;;;20.36;38.50;99547.13;2060136;28;1556;-65
2024/01/16 01:09:57;;;;;;;;;;;;;;;20.36;38.53;99541.38;2059838;28;2091;-65
2024/01/16 01:10:59;;;;;;;;;;;;;;;20.36;38.43;99552.88;2051144;28;2212;-65
2024/01/16 01:12:00;;;;;;;;;;;;;;;20.35;38.49;99551.41;2054381;28;1653;-65
2024/01/16 01:13:02;;;;;;;;;;;;;;;20.34;38.43;99555.72;2058422;28;1961;-65
2024/01/16 01:14:03;;;;;;;;;;;;;;;20.34;38.45;99555.72;2060134;28;2333;-65
2024/01/16 01:15:05;;;;;;;;;;;;;;;20.33;38.47;99562.88;2058505;28;2097;-65
2024/01/16 01:16:08;;;;;;;;;;;;;;;20.32;38.34;99558.53;2058739;28;2564;-65
2024/01/16 01:17:09;;;;;;;;;;;;;;;20.32;38.51;99570.03;2057728;28;3116;-66
2024/01/16 01:18:11;;;;;;;;;;;;;;;20.32;38.67;99564.28;2060816;28;2100;-67
2024/01/16 01:19:12;;;;;;;;;;;;;;;20.33;38.56;99570.75;2058263;28;1918;-67
2024/01/16 01:20:14;;;;;;;;;;;;;;;20.32;38.53;99563.53;2058221;28;2176;-67
2024/01/16 01:21:15;;;;;;;;;;;;;;;20.32;38.45;99570.03;2058394;28;1630;-64
2024/01/16 01:22:17;;;;;;;;;;;;;;;20.33;38.46;99571.50;2058798;28;2069;-64
2024/01/16 01:23:18;;;;;;;;;;;;;;;20.32;38.53;99580.78;2061226;28;2103;-64
2024/01/16 01:24:20;;;;;;;;;;;;;;;20.32;38.49;99578.66;2059324;28;2164;-64
2024/01/16 01:25:21;;;;;;;;;;;;;;;20.34;38.49;99577.97;2063322;28;2044;-64
2024/01/16 01:26:23;;;;;;;;;;;;;;;20.34;38.34;99580.84;2059733;28;2157;-65
2024/01/16 01:27:24;;;;;;;;;;;;;;;20.35;38.39;99585.91;2063832;28;1670;-64
2024/01/16 01:28:26;;;;;;;;;;;;;;;20.35;38.50;99580.16;2059209;28;1997;-64
2024/01/16 01:29:27;;;;;;;;;;;;;;;20.34;38.43;99578.72;2061394;28;2120;-64
2024/01/16 01:30:29;;;;;;;;;;;;;;;20.36;38.51;99581.63;2058799;28;7082;-64
2024/01/16 01:31:30;;;;;;;;;;;;;;;20.35;38.45;99580.16;2061678;28;1764;-64
2024/01/16 01:32:32;;;;;;;;;;;;;;;20.36;38.40;99581.63;2062350;28;1738;-64
2024/01/16 01:33:33;;;;;;;;;;;;;;;20.37;38.64;99588.84;2059818;28;2084;-64
2024/01/16 01:34:35;;;;;;;;;;;;;;;20.38;38.55;99583.81;2058526;28;2187;-64
2024/01/16 01:35:36;;;;;;;;;;;;;;;20.37;38.49;99588.84;2057382;28;2527;-69
2024/01/16 01:36:38;;;;;;;;;;;;;;;20.38;38.44;99590.31;2062827;28;3361;-66
2024/01/16 01:37:40;;;;;;;;;;;;;;;20.39;38.52;99593.94;2059073;28;1935;-66
2024/01/16 01:38:41;;;;;;;;;;;;;;;20.36;38.42;99593.13;2064210;28;2290;-66
2024/01/16 01:39:42;;;;;;;;;;;;;;;20.39;38.56;99593.94;2060894;28;2294;-66
2024/01/16 01:40:44;;;;;;;;;;;;;;;20.38;38.40;99590.31;2058679;28;1971;-66
2024/01/16 01:41:45;;;;;;;;;;;;;;;20.37;38.54;99588.84;2062306;28;1631;-66
2024/01/16 01:42:47;;;;;;;;;;;;;;;20.38;38.44;99593.19;2061601;28;1600;-66
2024/01/16 01:43:48;;;;;;;;;;;;;;;20.35;38.66;99585.91;2059490;28;2128;-66
2024/01/16 01:44:49;;;;;;;;;;;;;;;20.35;38.48;99603.16;2058022;28;2275;-66
2024/01/16 01:45:56;;;;;;;;;;;;;;;20.36;38.62;99601.03;2057086;28;2296;-66
2024/01/16 01:46:58;;;;;;;;;;;;;;;20.34;38.51;99601.72;2058493;28;1885;-66
2024/01/16 01:48:00;;;;;;;;;;;;;;;20.34;38.67;99600.97;2057648;28;2314;-66
2024/01/16 01:49:02;;;;;;;;;;;;;;;20.34;38.56;99600.97;2054075;28;1688;-66
2024/01/16 01:50:04;;;;;;;;;;;;;;;20.32;38.54;99610.28;2054103;28;2145;-66
2024/01/16 01:51:05;;;;;;;;;;;;;;;20.32;38.47;99610.28;2061141;28;1572;-66
2024/01/16 01:52:07;;;;;;;;;;;;;;;20.31;38.48;99603.06;2061738;28;2029;-66
2024/01/16 01:53:08;;;;;;;;;;;;;;;20.32;38.49;99603.78;2056234;28;3019;-68
2024/01/16 01:54:10;;;;;;;;;;;;;;;20.30;38.48;99616.69;2057015;28;2128;-68
2024/01/16 01:55:12;;;;;;;;;;;;;;;20.30;38.62;99613.81;2056205;28;2375;-68
2024/01/16 01:56:14;;;;;;;;;;;;;;;20.30;38.62;99610.22;2062620;28;1620;-68
2024/01/16 01:57:16;;;;;;;;;;;;;;;20.29;38.61;99600.13;2060812;28;2203;-65
2024/01/16 01:58:17;;;;;;;;;;;;;;;20.28;38.45;99613.03;2061164;28;2030;-65
2024/01/16 01:59:18;;;;;;;;;;;;;;;20.28;38.53;99604.41;2060589;28;1914;-65
2024/01/16 02:00:20;;;;;;;;;;;;;;;20.28;38.57;99618.78;2057202;28;6114;-64
2024/01/16 02:01:21;;;;;;;;;;;;;;;20.28;38.45;99621.66;2062134;28;2557;-65
2024/01/16 02:02:23;;;;;;;;;;;;;;;20.29;38.51;99623.13;2056405;28;2151;-65
2024/01/16 02:03:24;;;;;;;;;;;;;;;20.28;38.47;99622.41;2056948;28;2129;-65
2024/01/16 02:04:26;;;;;;;;;;;;;;;20.29;38.55;99620.25;2052538;28;1935;-65
2024/01/16 02:05:27;;;;;;;;;;;;;;;20.30;38.62;99630.34;2055661;28;2142;-65
2024/01/16 02:06:28;;;;;;;;;;;;;;;20.31;38.48;99631.81;2064008;28;1794;-66
2024/01/16 02:07:30;;;;;;;;;;;;;;;20.30;38.83;99627.47;2061356;28;2532;-65
2024/01/16 02:08:32;;;;;;;;;;;;;;;20.29;38.48;99637.50;2059590;28;2390;-64
2024/01/16 02:09:33;;;;;;;;;;;;;;;20.32;38.46;99641.91;2060931;28;1655;-65
2024/01/16 02:10:35;;;;;;;;;;;;;;;20.32;38.52;99644.78;2060447;28;2214;-65
2024/01/16 02:11:37;;;;;;;;;;;;;;;20.32;38.56;99647.66;2059721;28;1670;-65
2024/01/16 02:12:38;;;;;;;;;;;;;;;20.33;38.56;99645.50;2057424;28;2802;-67
2024/01/16 02:13:41;;;;;;;;;;;;;;;20.33;38.44;99651.97;2059163;28;2050;-67
2024/01/16 02:14:43;;;;;;;;;;;;;;;20.32;38.61;99650.53;2057028;28;2202;-67
2024/01/16 02:15:44;;;;;;;;;;;;;;;20.33;38.51;99645.50;2059726;28;2273;-67
2024/01/16 02:16:45;;;;;;;;;;;;;;;20.34;38.58;99641.97;2060075;28;2385;-65
2024/01/16 02:17:47;;;;;;;;;;;;;;;20.33;38.55;99640.47;2058730;28;2295;-65
2024/01/16 02:18:49;;;;;;;;;;;;;;;20.34;38.55;99644.84;2060417;28;1869;-65
2024/01/16 02:19:50;;;;;;;;;;;;;;;20.34;38.55;99641.97;2061101;28;2203;-65
2024/01/16 02:20:52;;;;;;;;;;;;;;;20.34;38.61;99652.72;2058923;28;2222;-65
2024/01/16 02:21:54;;;;;;;;;;;;;;;20.33;38.52;99645.50;2056376;28;2343;-65
2024/01/16 02:22:56;;;;;;;;;;;;;;;20.33;38.48;99657.72;2059478;28;2785;-65
2024/01/16 02:23:57;;;;;;;;;;;;;;;20.32;38.46;99667.78;2058156;28;2243;-65
2024/01/16 02:24:58;;;;;;;;;;;;;;;20.32;38.68;99667.03;2058584;28;2302;-65
2024/01/16 02:26:00;;;;;;;;;;;;;;;20.32;38.59;99673.53;2058311;28;2308;-65
2024/01/16 02:27:02;;;;;;;;;;;;;;;20.30;38.74;99665.56;2057341;28;2124;-65
2024/01/16 02:28:03;;;;;;;;;;;;;;;20.30;38.53;99674.19;2059137;28;2252;-65
2024/01/16 02:29:05;;;;;;;;;;;;;;;20.30;38.49;99673.47;2055235;28;2255;-65
2024/01/16 02:30:06;;;;;;;;;;;;;;;20.29;38.52;99669.88;2053513;28;6006;-65
2024/01/16 02:31:08;;;;;;;;;;;;;;;20.29;38.59;99674.88;2056589;28;2251;-65
2024/01/16 02:32:10;;;;;;;;;;;;;;;20.27;38.62;99666.94;2059994;28;2176;-65
2024/01/16 02:33:12;;;;;;;;;;;;;;;20.28;38.51;99673.41;2056153;28;3031;-67
2024/01/16 02:34:14;;;;;;;;;;;;;;;20.28;38.54;99667.66;2061452;28;2248;-69
2024/01/16 02:35:17;;;;;;;;;;;;;;;20.27;38.51;99675.56;2060426;28;2347;-63
2024/01/16 02:36:18;;;;;;;;;;;;;;;20.26;38.60;99676.94;2058506;28;2299;-67
2024/01/16 02:37:20;;;;;;;;;;;;;;;20.27;38.58;99686.31;2059850;28;2250;-61
2024/01/16 02:38:22;;;;;;;;;;;;;;;20.26;38.58;99681.97;2061633;28;1628;-60
2024/01/16 02:39:23;;;;;;;;;;;;;;;20.26;38.67;99688.44;2065253;28;1635;-61
2024/01/16 02:40:25;;;;;;;;;;;;;;;20.26;38.58;99688.44;2061396;28;1974;-60
2024/01/16 02:41:26;;;;;;;;;;;;;;;20.26;38.48;99690.59;2061725;28;1970;-60
2024/01/16 02:42:27;;;;;;;;;;;;;;;20.26;38.44;99693.47;2058377;28;2199;-61
2024/01/16 02:43:29;;;;;;;;;;;;;;;20.26;38.61;99694.19;2060928;28;1705;-60
2024/01/16 02:44:30;;;;;;;;;;;;;;;20.27;38.45;99694.94;2061189;28;1722;-60
2024/01/16 02:45:32;;;;;;;;;;;;;;;20.27;38.60;99701.44;2059568;28;1830;-60
2024/01/16 02:46:34;;;;;;;;;;;;;;;20.28;38.47;99707.91;2062335;28;1737;-61
2024/01/16 02:47:35;;;;;;;;;;;;;;;20.28;38.42;99716.53;2063875;28;2171;-60
2024/01/16 02:48:37;;;;;;;;;;;;;;;20.29;38.43;99706.47;2058050;28;2247;-60
2024/01/16 02:49:39;;;;;;;;;;;;;;;20.30;38.46;99710.84;2057714;28;2113;-61
2024/01/16 02:50:41;;;;;;;;;;;;;;;20.29;38.46;99715.88;2056334;28;2056;-60
2024/01/16 02:51:42;;;;;;;;;;;;;;;20.30;38.37;99711.56;2059408;28;2204;-60
2024/01/16 02:52:44;;;;;;;;;;;;;;;20.31;38.50;99718.03;2062050;28;1717;-60
2024/01/16 02:53:45;;;;;;;;;;;;;;;20.32;38.50;99719.53;2055273;28;2743;-63
2024/01/16 02:54:47;;;;;;;;;;;;;;;20.32;38.57;99719.53;2058625;28;2135;-63
2024/01/16 02:55:48;;;;;;;;;;;;;;;20.32;38.53;99716.66;2059366;28;2036;-63
2024/01/16 02:56:50;;;;;;;;;;;;;;;20.33;38.39;99723.13;2058207;28;2264;-63
2024/01/16 02:57:51;;;;;;;;;;;;;;;20.33;38.59;99726.72;2059633;28;1944;-60
2024/01/16 02:58:53;;;;;;;;;;;;;;;20.32;38.64;99725.28;2061533;28;1822;-60
2024/01/16 02:59:54;;;;;;;;;;;;;;;20.32;38.57;99725.28;2065916;28;1910;-60
2024/01/16 03:00:56;;;;;;;;;;;;;;;20.33;38.44;99726.00;2058038;28;6101;-60
2024/01/16 03:01:57;;;;;;;;;;;;;;;20.31;38.49;99723.78;2062745;28;1766;-60
2024/01/16 03:03:01;;;;;;;;;;;;;;;20.32;38.62;99730.28;2059203;28;1861;-60
2024/01/16 03:04:03;;;;;;;;;;;;;;;20.31;38.46;99732.41;2058821;28;2242;-60
2024/01/16 03:05:05;;;;;;;;;;;;;;;20.29;38.69;99738.09;2060466;28;2235;-60
2024/01/16 03:06:06;;;;;;;;;;;;;;;20.29;38.57;99732.34;2061507;28;1607;-60
2024/01/16 03:07:08;;;;;;;;;;;;;;;20.29;38.53;99735.22;2059422;28;2061;-60
2024/01/16 03:08:09;;;;;;;;;;;;;;;20.29;38.43;99735.22;2059076;28;2289;-60
2024/01/16 03:09:12;;;;;;;;;;;;;;;20.27;38.64;99735.16;2060696;28;1611;-60
2024/01/16 03:10:13;;;;;;;;;;;;;;;20.28;38.67;99736.66;2059343;28;2187;-60
2024/01/16 03:11:14;;;;;;;;;;;;;;;20.26;38.55;99734.44;2062543;28;2147;-60
2024/01/16 03:12:16;;;;;;;;;;;;;;;20.26;38.63;99736.59;2059366;28;2103;-60
2024/01/16 03:13:17;;;;;;;;;;;;;;;20.25;38.72;99732.25;2063349;28;2171;-60
2024/01/16 03:14:19;;;;;;;;;;;;;;;20.25;38.69;99743.75;2060045;28;2528;-65
2024/01/16 03:15:20;;;;;;;;;;;;;;;20.25;38.46;99738.00;2060277;28;2214;-63
2024/01/16 03:16:22;;;;;;;;;;;;;;;20.24;38.51;99748.75;2057532;28;2390;-62
2024/01/16 03:17:23;;;;;;;;;;;;;;;20.24;38.65;99742.28;2058851;28;2148;-62
2024/01/16 03:18:24;;;;;;;;;;;;;;;20.23;38.47;99740.81;2058191;28;2293;-61
2024/01/16 03:19:26;;;;;;;;;;;;;;;20.24;38.51;99748.75;2061947;28;1686;-61
2024/01/16 03:20:28;;;;;;;;;;;;;;;20.23;38.49;99763.81;2059026;28;2289;-60
2024/01/16 03:21:29;;;;;;;;;;;;;;;20.23;38.55;99758.06;2059771;28;2319;-60
2024/01/16 03:22:31;;;;;;;;;;;;;;;20.24;38.65;99756.66;2064807;28;1698;-61
2024/01/16 03:23:32;;;;;;;;;;;;;;;20.24;38.65;99760.25;2061627;28;2101;-61
2024/01/16 03:24:33;;;;;;;;;;;;;;;20.24;38.54;99759.53;2064227;28;1531;-60
2024/01/16 03:25:38;;;;;;;;;;;;;;;20.25;38.41;99749.50;2059170;28;1867;-60
2024/01/16 03:26:40;;;;;;;;;;;;;;;20.26;38.40;99768.22;2059198;28;1865;-60
2024/01/16 03:27:42;;;;;;;;;;;;;;;20.26;38.52;99751.69;2063850;28;1759;-60
2024/01/16 03:28:43;;;;;;;;;;;;;;;20.27;38.48;99763.91;2061240;28;1813;-60
2024/01/16 03:29:45;;;;;;;;;;;;;;;20.28;38.44;99771.16;2064485;28;2167;-61
2024/01/16 03:30:47;;;;;;;;;;;;;;;20.27;38.34;99776.16;2061512;28;6083;-61
2024/01/16 03:31:49;;;;;;;;;;;;;;;20.28;38.48;99771.16;2059721;28;2255;-60
2024/01/16 03:32:50;;;;;;;;;;;;;;;20.30;38.59;99779.84;2066100;28;1579;-60
2024/01/16 03:33:51;;;;;;;;;;;;;;;20.29;38.40;99779.09;2059517;28;2189;-60
2024/01/16 03:34:53;;;;;;;;;;;;;;;20.29;38.56;99784.84;2061104;28;2634;-60
2024/01/16 03:35:54;;;;;;;;;;;;;;;20.29;38.46;99784.09;2059626;28;3208;-62
2024/01/16 03:36:56;;;;;;;;;;;;;;;20.29;38.53;99784.09;2064223;28;3088;-62
2024/01/16 03:37:57;;;;;;;;;;;;;;;20.29;38.40;99789.84;2060961;28;3134;-62
2024/01/16 03:38:59;;;;;;;;;;;;;;;20.29;38.47;99784.09;2059690;28;1575;-62
2024/01/16 03:40:00;;;;;;;;;;;;;;;20.29;38.53;99792.72;2062085;28;1671;-61
2024/01/16 03:41:03;;;;;;;;;;;;;;;20.28;38.45;99794.88;2063825;28;1919;-60
2024/01/16 03:42:04;;;;;;;;;;;;;;;20.28;38.66;99788.41;2060914;28;2247;-61
2024/01/16 03:43:06;;;;;;;;;;;;;;;20.27;38.58;99802.03;2060548;28;2099;-61
2024/01/16 03:44:07;;;;;;;;;;;;;;;20.28;38.55;99797.03;2062829;28;1791;-61
2024/01/16 03:45:09;;;;;;;;;;;;;;;20.28;38.51;99791.28;2063001;28;2198;-60
2024/01/16 03:46:11;;;;;;;;;;;;;;;20.28;38.54;99797.03;2061702;28;1464;-60
2024/01/16 03:47:12;;;;;;;;;;;;;;;20.29;38.57;99795.59;2062307;28;1696;-61
2024/01/16 03:48:14;;;;;;;;;;;;;;;20.29;38.64;99795.59;2062477;28;1629;-61
2024/01/16 03:49:16;;;;;;;;;;;;;;;20.30;38.52;99797.09;2058777;28;2172;-60
2024/01/16 03:50:17;;;;;;;;;;;;;;;20.30;38.53;99797.09;2062844;28;2206;-60
2024/01/16 03:51:19;;;;;;;;;;;;;;;20.32;38.55;99796.38;2060301;28;2188;-60
2024/01/16 03:52:21;;;;;;;;;;;;;;;20.32;38.49;99797.16;2060970;28;1659;-60
2024/01/16 03:53:22;;;;;;;;;;;;;;;20.32;38.45;99811.53;2060209;28;2021;-60
2024/01/16 03:54:24;;;;;;;;;;;;;;;20.33;38.52;99804.34;2062270;28;1932;-61
2024/01/16 03:55:25;;;;;;;;;;;;;;;20.34;38.47;99802.19;2060688;28;1697;-60
2024/01/16 03:56:26;;;;;;;;;;;;;;;20.30;38.65;99805.72;2058659;28;2627;-62
2024/01/16 03:57:28;;;;;;;;;;;;;;;20.33;38.61;99815.84;2059395;28;3148;-62
2024/01/16 03:58:29;;;;;;;;;;;;;;;20.34;38.40;99811.59;2059921;28;2087;-63
2024/01/16 03:59:31;;;;;;;;;;;;;;;20.35;38.47;99821.66;2059553;28;1849;-62
2024/01/16 04:00:32;;;;;;;;;;;;;;;20.35;38.47;99815.91;2058355;28;6107;-60
2024/01/16 04:01:36;;;;;;;;;;;;;;;20.36;38.40;99819.50;2062132;28;2030;-60
2024/01/16 04:02:38;;;;;;;;;;;;;;;20.36;38.51;99822.38;2059586;28;1683;-60
2024/01/16 04:03:39;;;;;;;;;;;;;;;20.36;38.62;99817.38;2061383;28;1967;-60
2024/01/16 04:04:41;;;;;;;;;;;;;;;20.37;38.64;99824.59;2060996;28;2245;-60
2024/01/16 04:05:42;;;;;;;;;;;;;;;20.37;38.49;99824.59;2058410;28;1896;-60
2024/01/16 04:06:44;;;;;;;;;;;;;;;20.38;38.65;99822.44;2058231;28;3132;-64
2024/01/16 04:07:45;;;;;;;;;;;;;;;20.38;38.58;99823.19;2058771;28;1835;-60
2024/01/16 04:08:46;;;;;;;;;;;;;;;20.38;38.64;99814.56;2058921;28;1711;-60
2024/01/16 04:09:48;;;;;;;;;;;;;;;20.39;38.66;99821.06;2063568;28;1583;-60
2024/01/16 04:10:49;;;;;;;;;;;;;;;20.38;38.61;99820.31;2061334;28;1758;-60
2024/01/16 04:11:51;;;;;;;;;;;;;;;20.39;38.57;99824.66;2061001;28;2363;-60
2024/01/16 04:12:52;;;;;;;;;;;;;;;20.40;38.49;99829.00;2058869;28;1765;-60
2024/01/16 04:13:54;;;;;;;;;;;;;;;20.39;38.62;99821.78;2062690;28;1627;-60
2024/01/16 04:14:55;;;;;;;;;;;;;;;20.41;38.51;99824.72;2058748;28;2286;-60
2024/01/16 04:15:56;;;;;;;;;;;;;;;20.41;38.59;99829.72;2058466;28;2138;-60
2024/01/16 04:16:58;;;;;;;;;;;;;;;20.41;38.60;99833.34;2060194;28;2018;-60
2024/01/16 04:17:59;;;;;;;;;;;;;;;20.41;38.55;99829.72;2059981;28;2106;-60
2024/01/16 04:19:01;;;;;;;;;;;;;;;20.42;38.59;99831.19;2061115;28;2478;-60
2024/01/16 04:20:02;;;;;;;;;;;;;;;20.43;38.70;99824.03;2058851;28;2122;-60
2024/01/16 04:21:04;;;;;;;;;;;;;;;20.42;38.65;99826.19;2062109;28;1925;-60
2024/01/16 04:22:05;;;;;;;;;;;;;;;20.42;38.54;99831.94;2060620;28;2230;-60
2024/01/16 04:23:07;;;;;;;;;;;;;;;20.43;38.59;99833.41;2059538;28;2183;-60
2024/01/16 04:24:08;;;;;;;;;;;;;;;20.43;38.59;99821.91;2060402;28;3196;-64
2024/01/16 04:25:10;;;;;;;;;;;;;;;20.44;38.53;99831.28;2060278;28;3460;-65
2024/01/16 04:26:11;;;;;;;;;;;;;;;20.43;38.61;99827.66;2058827;28;3106;-64
2024/01/16 04:27:12;;;;;;;;;;;;;;;20.43;38.63;99833.41;2062985;28;1639;-64
2024/01/16 04:28:14;;;;;;;;;;;;;;;20.43;38.72;99827.66;2062057;28;2319;-61
2024/01/16 04:29:15;;;;;;;;;;;;;;;20.44;38.68;99834.88;2063887;28;1611;-60
2024/01/16 04:30:17;;;;;;;;;;;;;;;20.43;38.57;99836.28;2059010;28;6214;-60
2024/01/16 04:31:19;;;;;;;;;;;;;;;20.43;38.80;99835.53;2058834;28;2199;-62
2024/01/16 04:32:20;;;;;;;;;;;;;;;20.43;38.66;99833.41;2061725;28;1622;-62
2024/01/16 04:33:22;;;;;;;;;;;;;;;20.42;38.72;99831.94;2060254;28;2227;-62
2024/01/16 04:34:23;;;;;;;;;;;;;;;20.42;38.66;99834.09;2063838;28;2221;-62
2024/01/16 04:35:25;;;;;;;;;;;;;;;20.41;38.66;99830.47;2062857;28;2476;-62
2024/01/16 04:36:27;;;;;;;;;;;;;;;20.39;38.70;99830.41;2063876;28;1877;-62
2024/01/16 04:37:28;;;;;;;;;;;;;;;20.39;38.72;99832.56;2058983;28;2035;-62
2024/01/16 04:38:29;;;;;;;;;;;;;;;20.39;38.93;99827.53;2061866;28;2192;-60
2024/01/16 04:39:31;;;;;;;;;;;;;;;20.40;38.76;99840.50;2059417;28;2584;-62
2024/01/16 04:40:32;;;;;;;;;;;;;;;20.38;38.75;99834.69;2063303;28;1797;-62
2024/01/16 04:41:34;;;;;;;;;;;;;;;20.39;38.68;99832.56;2061217;28;2231;-62
2024/01/16 04:42:35;;;;;;;;;;;;;;;20.39;38.73;99839.03;2059256;28;2108;-62
2024/01/16 04:43:37;;;;;;;;;;;;;;;20.39;38.68;99836.16;2061786;28;3073;-64
2024/01/16 04:44:38;;;;;;;;;;;;;;;20.39;38.70;99836.16;2060979;28;3103;-65
2024/01/16 04:45:40;;;;;;;;;;;;;;;20.39;38.72;99839.03;2058949;28;2186;-64
2024/01/16 04:46:41;;;;;;;;;;;;;;;20.39;38.75;99836.16;2062488;28;1834;-65
2024/01/16 04:47:42;;;;;;;;;;;;;;;20.40;38.65;99839.75;2058136;28;2286;-61
2024/01/16 04:48:44;;;;;;;;;;;;;;;20.39;38.67;99833.28;2059003;28;2580;-62
2024/01/16 04:49:45;;;;;;;;;;;;;;;20.40;38.87;99840.50;2059734;28;2049;-61
2024/01/16 04:50:47;;;;;;;;;;;;;;;20.41;38.61;99844.09;2061784;28;1747;-62
2024/01/16 04:51:49;;;;;;;;;;;;;;;20.41;38.64;99841.97;2059505;28;2195;-62
2024/01/16 04:52:50;;;;;;;;;;;;;;;20.41;38.68;99841.97;2062415;28;1938;-62
2024/01/16 04:53:54;;;;;;;;;;;;;;;20.43;38.69;99841.28;2059711;28;1938;-61
2024/01/16 04:54:56;;;;;;;;;;;;;;;20.42;38.80;99852.06;2061267;28;2249;-61
2024/01/16 04:55:57;;;;;;;;;;;;;;;20.42;38.85;99849.19;2059168;28;2211;-62
2024/01/16 04:56:59;;;;;;;;;;;;;;;20.44;38.67;99857.88;2062991;28;1652;-61
2024/01/16 04:58:00;;;;;;;;;;;;;;;20.44;38.59;99868.66;2063902;28;1652;-62
2024/01/16 04:59:01;;;;;;;;;;;;;;;20.44;38.66;99866.50;2058948;28;2283;-61
2024/01/16 05:00:06;;;;;;;;;;;;;;;20.45;38.59;99864.34;2061094;28;6182;-62
2024/01/16 05:01:08;;;;;;;;;;;;;;;20.45;38.69;99867.97;2057500;28;3072;-63
2024/01/16 05:02:10;;;;;;;;;;;;;;;20.44;38.63;99863.63;2059311;28;2845;-64
2024/01/16 05:03:11;;;;;;;;;;;;;;;20.45;38.71;99853.56;2061641;28;2111;-64
2024/01/16 05:04:13;;;;;;;;;;;;;;;20.45;38.66;99853.56;2059454;28;1823;-64
2024/01/16 05:05:14;;;;;;;;;;;;;;;20.46;38.56;99855.06;2062474;28;1974;-62
2024/01/16 05:06:16;;;;;;;;;;;;;;;20.46;38.70;99854.34;2065245;28;1863;-61
2024/01/16 05:07:20;;;;;;;;;;;;;;;20.47;38.75;99858.66;2062892;28;1755;-61
2024/01/16 05:08:21;;;;;;;;;;;;;;;20.47;38.58;99856.53;2058053;28;2789;-64
2024/01/16 05:09:23;;;;;;;;;;;;;;;20.48;38.67;99858.00;2062098;28;3262;-60
2024/01/16 05:10:24;;;;;;;;;;;;;;;20.48;38.66;99852.25;2062077;28;1666;-60
2024/01/16 05:11:26;;;;;;;;;;;;;;;20.48;38.73;99860.16;2059551;28;2289;-61
2024/01/16 05:12:27;;;;;;;;;;;;;;;20.48;38.67;99860.16;2061586;28;2265;-60
2024/01/16 05:13:29;;;;;;;;;;;;;;;20.48;38.72;99860.16;2058448;28;2426;-61
2024/01/16 05:14:30;;;;;;;;;;;;;;;20.48;38.68;99848.66;2058876;28;2223;-60
2024/01/16 05:15:32;;;;;;;;;;;;;;;20.48;38.79;99863.03;2060258;28;1653;-60
2024/01/16 05:16:33;;;;;;;;;;;;;;;20.49;38.78;99861.59;2058078;28;2104;-60
2024/01/16 05:17:34;;;;;;;;;;;;;;;20.49;38.65;99862.34;2059878;28;1857;-60
2024/01/16 05:18:36;;;;;;;;;;;;;;;20.49;38.79;99858.72;2061800;28;2219;-60
2024/01/16 05:19:37;;;;;;;;;;;;;;;20.49;38.65;99856.59;2059167;28;2156;-61
2024/01/16 05:20:39;;;;;;;;;;;;;;;20.49;38.64;99859.47;2059130;28;2179;-60
2024/01/16 05:21:41;;;;;;;;;;;;;;;20.49;38.67;99859.47;2059081;28;2178;-60
2024/01/16 05:22:42;;;;;;;;;;;;;;;20.49;38.69;99867.34;2061344;28;2424;-60
2024/01/16 05:23:44;;;;;;;;;;;;;;;20.49;38.67;99862.34;2061298;28;1643;-60
2024/01/16 05:24:45;;;;;;;;;;;;;;;20.48;38.95;99869.50;2061859;28;1632;-61